HKE842 VHHH-ROAH
Flight info
| Callsign | HKE842 |
|---|---|
| Flight time | N/A |
| Altitude | 27000 |
| Route | DALOL V631 ENVAR M750 KUDOS R595 SEDKU Y573 MJC Y57 VELNO |
| Aircraft | A20N/M-SDE2E3FGHIRWXY/LB1 |
Departure
| Time | 2026-04-30 12:47 |
|---|---|
| Airport | Hong Kong International Airport (VHHH) |
Arrival
| Time | N/A |
|---|---|
| Airport | Naha International Airport (ROAH) |
| Time | Latitude | Longitude | Altitude | Speed | Heading |
|---|---|---|---|---|---|
| 2026-04-30 12:36 | 22.31254 | 113.92491 | 36 ft | 0 kts | 116° |
| 2026-04-30 12:39 | 22.31237 | 113.92516 | 35 ft | 9 kts | 144° |
| 2026-04-30 12:39 | 22.31137 | 113.92481 | 34 ft | 21 kts | 209° |
| 2026-04-30 12:39 | 22.31007 | 113.92413 | 36 ft | 22 kts | 205° |
| 2026-04-30 12:40 | 22.30882 | 113.92349 | 37 ft | 16 kts | 205° |
| 2026-04-30 12:40 | 22.30796 | 113.92330 | 36 ft | 13 kts | 160° |
| 2026-04-30 12:40 | 22.30715 | 113.92315 | 36 ft | 13 kts | 234° |
| 2026-04-30 12:40 | 22.30680 | 113.92213 | 35 ft | 16 kts | 251° |
| 2026-04-30 12:41 | 22.30642 | 113.92092 | 37 ft | 18 kts | 250° |
| 2026-04-30 12:41 | 22.30597 | 113.91956 | 37 ft | 20 kts | 250° |
| 2026-04-30 12:41 | 22.30547 | 113.91804 | 35 ft | 22 kts | 251° |
| 2026-04-30 12:41 | 22.30501 | 113.91653 | 35 ft | 22 kts | 251° |
| 2026-04-30 12:42 | 22.30452 | 113.91500 | 36 ft | 22 kts | 251° |
| 2026-04-30 12:42 | 22.30399 | 113.91337 | 36 ft | 23 kts | 251° |
| 2026-04-30 12:42 | 22.30346 | 113.91173 | 35 ft | 23 kts | 250° |
| 2026-04-30 12:42 | 22.30297 | 113.91025 | 37 ft | 20 kts | 250° |
| 2026-04-30 12:43 | 22.30247 | 113.90874 | 37 ft | 22 kts | 250° |
| 2026-04-30 12:43 | 22.30194 | 113.90710 | 37 ft | 24 kts | 251° |
| 2026-04-30 12:43 | 22.30142 | 113.90546 | 36 ft | 24 kts | 251° |
| 2026-04-30 12:43 | 22.30092 | 113.90389 | 36 ft | 20 kts | 250° |
| 2026-04-30 12:44 | 22.30065 | 113.90306 | 36 ft | 13 kts | 251° |
| 2026-04-30 12:44 | 22.30034 | 113.90211 | 36 ft | 15 kts | 251° |
| 2026-04-30 12:44 | 22.30002 | 113.90111 | 36 ft | 17 kts | 251° |
| 2026-04-30 12:44 | 22.29959 | 113.89982 | 36 ft | 19 kts | 250° |
| 2026-04-30 12:45 | 22.29913 | 113.89842 | 36 ft | 20 kts | 250° |
| 2026-04-30 12:45 | 22.29860 | 113.89731 | 36 ft | 14 kts | 204° |
| 2026-04-30 12:45 | 22.29781 | 113.89756 | 36 ft | 13 kts | 163° |
| 2026-04-30 12:45 | 22.29684 | 113.89790 | 37 ft | 15 kts | 156° |
| 2026-04-30 12:46 | 22.29647 | 113.89881 | 35 ft | 15 kts | 72° |
| 2026-04-30 12:46 | 22.29673 | 113.89958 | 36 ft | 11 kts | 69° |
| 2026-04-30 12:46 | 22.29709 | 113.90064 | 36 ft | 32 kts | 69° |
| 2026-04-30 12:46 | 22.29853 | 113.90509 | 33 ft | 97 kts | 72° |
| 2026-04-30 12:47 | 22.30137 | 113.91388 | 35 ft | 148 kts | 70° |
| 2026-04-30 12:47 | 22.30440 | 113.92299 | 149 ft | 172 kts | 70° |
| 2026-04-30 12:47 | 22.30797 | 113.93301 | 512 ft | 177 kts | 70° |
| 2026-04-30 12:47 | 22.31165 | 113.94400 | 1185 ft | 171 kts | 72° |
| 2026-04-30 12:48 | 22.31502 | 113.95490 | 1789 ft | 171 kts | 73° |
| 2026-04-30 12:48 | 22.31715 | 113.96192 | 2013 ft | 181 kts | 73° |
| 2026-04-30 12:48 | 22.32044 | 113.97271 | 2304 ft | 195 kts | 73° |
| 2026-04-30 12:48 | 22.32495 | 113.98727 | 2661 ft | 214 kts | 72° |
| 2026-04-30 12:49 | 22.32947 | 114.00152 | 3489 ft | 211 kts | 71° |
| 2026-04-30 12:49 | 22.33371 | 114.01470 | 4339 ft | 212 kts | 71° |
| 2026-04-30 12:49 | 22.33822 | 114.02936 | 5081 ft | 224 kts | 77° |
| 2026-04-30 12:50 | 22.32966 | 114.06071 | 6507 ft | 246 kts | 129° |
| 2026-04-30 12:50 | 22.31730 | 114.07332 | 7387 ft | 252 kts | 146° |
| 2026-04-30 12:50 | 22.30342 | 114.08099 | 8140 ft | 255 kts | 162° |
| 2026-04-30 12:51 | 22.29291 | 114.08415 | 8680 ft | 256 kts | 170° |
| 2026-04-30 12:51 | 22.27672 | 114.08650 | 9456 ft | 258 kts | 178° |
| 2026-04-30 12:51 | 22.25941 | 114.08727 | 10241 ft | 261 kts | 181° |
| 2026-04-30 12:51 | 22.24138 | 114.08730 | 11028 ft | 265 kts | 184° |
| 2026-04-30 12:52 | 22.22216 | 114.08699 | 11426 ft | 287 kts | 185° |
| 2026-04-30 12:52 | 22.20137 | 114.08656 | 11703 ft | 310 kts | 184° |
| 2026-04-30 12:52 | 22.17927 | 114.09005 | 12075 ft | 335 kts | 164° |
| 2026-04-30 12:52 | 22.15860 | 114.10261 | 12747 ft | 348 kts | 142° |
| 2026-04-30 12:53 | 22.14370 | 114.12179 | 13473 ft | 357 kts | 121° |
| 2026-04-30 12:53 | 22.13199 | 114.14595 | 14211 ft | 362 kts | 118° |
| 2026-04-30 12:53 | 22.12145 | 114.16850 | 14899 ft | 365 kts | 118° |
| 2026-04-30 12:53 | 22.11037 | 114.19221 | 15588 ft | 369 kts | 118° |
| 2026-04-30 12:54 | 22.09869 | 114.21705 | 16271 ft | 373 kts | 119° |
| 2026-04-30 12:54 | 22.08657 | 114.24187 | 16935 ft | 375 kts | 124° |
| 2026-04-30 12:54 | 22.07085 | 114.26433 | 17599 ft | 375 kts | 136° |
| 2026-04-30 12:54 | 22.05131 | 114.28300 | 18081 ft | 381 kts | 147° |
| 2026-04-30 12:55 | 22.02940 | 114.30011 | 18268 ft | 397 kts | 147° |
| 2026-04-30 12:55 | 22.00676 | 114.31775 | 18761 ft | 403 kts | 147° |
| 2026-04-30 12:55 | 21.98427 | 114.33537 | 19343 ft | 407 kts | 147° |
| 2026-04-30 12:55 | 21.96139 | 114.35336 | 19910 ft | 410 kts | 147° |
| 2026-04-30 12:56 | 21.93823 | 114.37161 | 20443 ft | 414 kts | 147° |
| 2026-04-30 12:56 | 21.91486 | 114.39001 | 20966 ft | 418 kts | 147° |
| 2026-04-30 12:56 | 21.89130 | 114.40855 | 21483 ft | 421 kts | 147° |
| 2026-04-30 12:56 | 21.86823 | 114.42833 | 21974 ft | 429 kts | 139° |
| 2026-04-30 12:57 | 21.84946 | 114.45368 | 22440 ft | 438 kts | 123° |
| 2026-04-30 12:57 | 21.83679 | 114.48374 | 22877 ft | 446 kts | 109° |
| 2026-04-30 12:57 | 21.82864 | 114.51453 | 23328 ft | 450 kts | 107° |
| 2026-04-30 12:57 | 21.82050 | 114.54720 | 23760 ft | 454 kts | 107° |
| 2026-04-30 12:58 | 21.81229 | 114.58010 | 24181 ft | 458 kts | 107° |
| 2026-04-30 12:58 | 21.80388 | 114.61334 | 24634 ft | 460 kts | 107° |
| 2026-04-30 12:58 | 21.79550 | 114.64607 | 25079 ft | 462 kts | 107° |
| 2026-04-30 12:58 | 21.78688 | 114.67944 | 25509 ft | 464 kts | 107° |
| 2026-04-30 12:59 | 21.77818 | 114.71301 | 25916 ft | 467 kts | 107° |
| 2026-04-30 12:59 | 21.76953 | 114.74630 | 26298 ft | 470 kts | 107° |
| 2026-04-30 12:59 | 21.76070 | 114.78028 | 26699 ft | 472 kts | 107° |
| 2026-04-30 12:59 | 21.75204 | 114.81378 | 26868 ft | 474 kts | 106° |
| 2026-04-30 13:00 | 21.74571 | 114.84859 | 26945 ft | 475 kts | 98° |
| 2026-04-30 13:00 | 21.74347 | 114.88404 | 27024 ft | 477 kts | 90° |
| 2026-04-30 13:00 | 21.74364 | 114.91956 | 27026 ft | 476 kts | 90° |
| 2026-04-30 13:00 | 21.74371 | 114.95473 | 27027 ft | 476 kts | 90° |
| 2026-04-30 13:01 | 21.74371 | 114.99038 | 27027 ft | 477 kts | 90° |
| 2026-04-30 13:01 | 21.74369 | 115.02605 | 27027 ft | 477 kts | 90° |
| 2026-04-30 13:01 | 21.74366 | 115.06173 | 27027 ft | 477 kts | 90° |
| 2026-04-30 13:01 | 21.74363 | 115.09740 | 27027 ft | 477 kts | 90° |
| 2026-04-30 13:02 | 21.74359 | 115.13302 | 27027 ft | 477 kts | 90° |
| 2026-04-30 13:02 | 21.74354 | 115.16874 | 27027 ft | 477 kts | 90° |
| 2026-04-30 13:02 | 21.74349 | 115.20434 | 27027 ft | 477 kts | 90° |
| 2026-04-30 13:02 | 21.74343 | 115.24003 | 27026 ft | 477 kts | 90° |
| 2026-04-30 13:03 | 21.74336 | 115.27570 | 27026 ft | 477 kts | 90° |
| 2026-04-30 13:03 | 21.74328 | 115.31089 | 27027 ft | 477 kts | 90° |
| 2026-04-30 13:03 | 21.74319 | 115.34650 | 27027 ft | 477 kts | 90° |
| 2026-04-30 13:03 | 21.74310 | 115.38219 | 27027 ft | 477 kts | 90° |
| 2026-04-30 13:04 | 21.74301 | 115.41789 | 27027 ft | 478 kts | 90° |
| 2026-04-30 13:04 | 21.74290 | 115.45364 | 27027 ft | 478 kts | 90° |
| 2026-04-30 13:04 | 21.74279 | 115.48948 | 27027 ft | 478 kts | 90° |
| 2026-04-30 13:04 | 21.74266 | 115.52485 | 27027 ft | 478 kts | 90° |
| 2026-04-30 13:05 | 21.74252 | 115.56058 | 27027 ft | 478 kts | 90° |
| 2026-04-30 13:05 | 21.74238 | 115.59638 | 27027 ft | 478 kts | 90° |
| 2026-04-30 13:05 | 21.74225 | 115.63209 | 27027 ft | 478 kts | 90° |
| 2026-04-30 13:06 | 21.74198 | 115.70348 | 27027 ft | 478 kts | 90° |
| 2026-04-30 13:06 | 21.74184 | 115.73924 | 27027 ft | 478 kts | 90° |
| 2026-04-30 13:06 | 21.74168 | 115.77449 | 27027 ft | 478 kts | 90° |
| 2026-04-30 13:06 | 21.74152 | 115.81024 | 27027 ft | 479 kts | 90° |
| 2026-04-30 13:07 | 21.74134 | 115.84608 | 27027 ft | 479 kts | 90° |
| 2026-04-30 13:07 | 21.74116 | 115.88188 | 27026 ft | 478 kts | 90° |
| 2026-04-30 13:07 | 21.74097 | 115.91767 | 27027 ft | 479 kts | 90° |
| 2026-04-30 13:07 | 21.74078 | 115.95349 | 27027 ft | 479 kts | 90° |
| 2026-04-30 13:08 | 21.74058 | 115.98926 | 27027 ft | 479 kts | 90° |
| 2026-04-30 13:08 | 21.74037 | 116.02498 | 27035 ft | 479 kts | 90° |
| 2026-04-30 13:08 | 21.74015 | 116.06079 | 27053 ft | 478 kts | 90° |
| 2026-04-30 13:08 | 21.73992 | 116.09650 | 27054 ft | 479 kts | 90° |
| 2026-04-30 13:09 | 21.73968 | 116.13208 | 27055 ft | 479 kts | 90° |
| 2026-04-30 13:09 | 21.73943 | 116.16787 | 27054 ft | 479 kts | 90° |
| 2026-04-30 13:09 | 21.73918 | 116.20368 | 27054 ft | 478 kts | 90° |
| 2026-04-30 13:09 | 21.73892 | 116.23942 | 27054 ft | 479 kts | 90° |
| 2026-04-30 13:10 | 21.73867 | 116.27281 | 27055 ft | 479 kts | 91° |
| 2026-04-30 13:10 | 21.73840 | 116.30876 | 27054 ft | 479 kts | 91° |
| 2026-04-30 13:10 | 21.73812 | 116.34446 | 27055 ft | 479 kts | 91° |
| 2026-04-30 13:10 | 21.73783 | 116.38032 | 27054 ft | 479 kts | 91° |
| 2026-04-30 13:11 | 21.73754 | 116.41613 | 27054 ft | 478 kts | 91° |
| 2026-04-30 13:11 | 21.73723 | 116.45192 | 27055 ft | 479 kts | 91° |
| 2026-04-30 13:11 | 21.73693 | 116.48726 | 27054 ft | 479 kts | 91° |
| 2026-04-30 13:11 | 21.73660 | 116.52298 | 27054 ft | 478 kts | 91° |
| 2026-04-30 13:12 | 21.73628 | 116.55863 | 27054 ft | 479 kts | 91° |
| 2026-04-30 13:12 | 21.73594 | 116.59455 | 27054 ft | 479 kts | 91° |
| 2026-04-30 13:12 | 21.73560 | 116.63035 | 27054 ft | 477 kts | 91° |
| 2026-04-30 13:13 | 21.73490 | 116.70172 | 27059 ft | 477 kts | 91° |
| 2026-04-30 13:13 | 21.73455 | 116.73743 | 27062 ft | 478 kts | 90° |
| 2026-04-30 13:13 | 21.74355 | 116.80801 | 27064 ft | 478 kts | 73° |
| 2026-04-30 13:14 | 21.75453 | 116.84167 | 27062 ft | 477 kts | 67° |
| 2026-04-30 13:14 | 21.76671 | 116.87486 | 27064 ft | 477 kts | 68° |
| 2026-04-30 13:14 | 21.79062 | 116.94085 | 27064 ft | 478 kts | 68° |
| 2026-04-30 13:15 | 21.80269 | 116.97423 | 27063 ft | 477 kts | 68° |
| 2026-04-30 13:15 | 21.82673 | 117.04081 | 27064 ft | 477 kts | 68° |
| 2026-04-30 13:15 | 21.83874 | 117.07410 | 27064 ft | 477 kts | 68° |
| 2026-04-30 13:16 | 21.85075 | 117.10740 | 27063 ft | 477 kts | 68° |
| 2026-04-30 13:16 | 21.86276 | 117.14071 | 27064 ft | 477 kts | 68° |
| 2026-04-30 13:16 | 21.87476 | 117.17401 | 27064 ft | 478 kts | 68° |
| 2026-04-30 13:17 | 21.89845 | 117.23988 | 27064 ft | 478 kts | 68° |
| 2026-04-30 13:17 | 21.91046 | 117.27327 | 27064 ft | 478 kts | 68° |
| 2026-04-30 13:17 | 21.93039 | 117.32874 | 27064 ft | 478 kts | 68° |
| 2026-04-30 13:18 | 21.94641 | 117.37339 | 27064 ft | 478 kts | 68° |
| 2026-04-30 13:18 | 21.97027 | 117.44000 | 27064 ft | 478 kts | 68° |
| 2026-04-30 13:18 | 21.98226 | 117.47350 | 27064 ft | 478 kts | 68° |
| 2026-04-30 13:19 | 21.99575 | 117.50617 | 27064 ft | 477 kts | 61° |
| 2026-04-30 13:19 | 22.01244 | 117.53652 | 27065 ft | 476 kts | 57° |
| 2026-04-30 13:19 | 22.02984 | 117.56692 | 27063 ft | 476 kts | 57° |
| 2026-04-30 13:19 | 22.04713 | 117.59731 | 27063 ft | 476 kts | 57° |
| 2026-04-30 13:20 | 22.06442 | 117.62778 | 27064 ft | 476 kts | 57° |
| 2026-04-30 13:20 | 22.08168 | 117.65822 | 27063 ft | 477 kts | 57° |
| 2026-04-30 13:20 | 22.09900 | 117.68876 | 27063 ft | 477 kts | 57° |
| 2026-04-30 13:20 | 22.11628 | 117.71926 | 27065 ft | 476 kts | 57° |
| 2026-04-30 13:21 | 22.13355 | 117.74976 | 27064 ft | 476 kts | 57° |
| 2026-04-30 13:21 | 22.15079 | 117.78023 | 27063 ft | 477 kts | 57° |
| 2026-04-30 13:21 | 22.16783 | 117.81034 | 27054 ft | 477 kts | 57° |
| 2026-04-30 13:22 | 22.20236 | 117.87141 | 27054 ft | 477 kts | 57° |
| 2026-04-30 13:22 | 22.21959 | 117.90190 | 27055 ft | 476 kts | 57° |
| 2026-04-30 13:22 | 22.25412 | 117.96309 | 27056 ft | 477 kts | 57° |
| 2026-04-30 13:23 | 22.27133 | 117.99363 | 27054 ft | 476 kts | 57° |
| 2026-04-30 13:23 | 22.30629 | 118.05444 | 27055 ft | 477 kts | 56° |
| 2026-04-30 13:24 | 22.34179 | 118.11487 | 27054 ft | 477 kts | 56° |
| 2026-04-30 13:24 | 22.37689 | 118.17493 | 27054 ft | 476 kts | 56° |
| 2026-04-30 13:25 | 22.41203 | 118.23541 | 27054 ft | 476 kts | 57° |
| 2026-04-30 13:25 | 22.44662 | 118.29651 | 27054 ft | 477 kts | 57° |
| 2026-04-30 13:26 | 22.49851 | 118.38843 | 27054 ft | 477 kts | 57° |
| 2026-04-30 13:26 | 22.53209 | 118.44788 | 27054 ft | 477 kts | 57° |
| 2026-04-30 13:27 | 22.56679 | 118.50933 | 27363 ft | 481 kts | 57° |
| 2026-04-30 13:28 | 22.61966 | 118.60220 | 28476 ft | 488 kts | 57° |
| 2026-04-30 13:28 | 22.65502 | 118.66420 | 29113 ft | 493 kts | 57° |
| 2026-04-30 13:28 | 22.67303 | 118.69586 | 29438 ft | 496 kts | 57° |
| 2026-04-30 13:29 | 22.70907 | 118.75930 | 30059 ft | 501 kts | 57° |
| 2026-04-30 13:29 | 22.74535 | 118.82329 | 30694 ft | 506 kts | 57° |
| 2026-04-30 13:30 | 22.78007 | 118.88453 | 31319 ft | 510 kts | 57° |
| 2026-04-30 13:31 | 22.81687 | 118.94952 | 32182 ft | 508 kts | 57° |
| 2026-04-30 13:31 | 22.87221 | 119.04742 | 33369 ft | 506 kts | 57° |
| 2026-04-30 13:32 | 22.90827 | 119.11132 | 34059 ft | 506 kts | 57° |
| 2026-04-30 13:32 | 22.94489 | 119.17629 | 34759 ft | 504 kts | 57° |
| 2026-04-30 13:33 | 22.97910 | 119.23708 | 34997 ft | 502 kts | 57° |
| 2026-04-30 13:34 | 23.03360 | 119.33406 | 35044 ft | 502 kts | 57° |
| 2026-04-30 13:35 | 23.10591 | 119.46301 | 35045 ft | 502 kts | 57° |
| 2026-04-30 13:36 | 23.17783 | 119.59155 | 35043 ft | 503 kts | 58° |
| 2026-04-30 13:36 | 23.22215 | 119.67087 | 35045 ft | 503 kts | 58° |
| 2026-04-30 13:37 | 23.27610 | 119.76756 | 35048 ft | 504 kts | 58° |
| 2026-04-30 13:38 | 23.31374 | 119.83514 | 35046 ft | 504 kts | 58° |
| 2026-04-30 13:39 | 23.39286 | 119.95503 | 35038 ft | 501 kts | 41° |
| 2026-04-30 13:40 | 23.46886 | 120.03304 | 35031 ft | 501 kts | 41° |
| 2026-04-30 13:40 | 23.51943 | 120.08526 | 35032 ft | 501 kts | 41° |
| 2026-04-30 13:41 | 23.56935 | 120.13676 | 35032 ft | 502 kts | 41° |
| 2026-04-30 13:41 | 23.61997 | 120.18904 | 35044 ft | 502 kts | 41° |
| 2026-04-30 13:42 | 23.67068 | 120.24147 | 35046 ft | 502 kts | 41° |
| 2026-04-30 13:42 | 23.74642 | 120.31989 | 35050 ft | 503 kts | 41° |
| 2026-04-30 13:43 | 23.79641 | 120.37173 | 35054 ft | 503 kts | 41° |
| 2026-04-30 13:43 | 23.84749 | 120.42474 | 35054 ft | 503 kts | 41° |
| 2026-04-30 13:44 | 23.89774 | 120.47697 | 35054 ft | 503 kts | 41° |
| 2026-04-30 13:44 | 23.94730 | 120.52886 | 35051 ft | 503 kts | 42° |
| 2026-04-30 13:45 | 24.02281 | 120.60868 | 35051 ft | 503 kts | 41° |
| 2026-04-30 13:46 | 24.07316 | 120.66191 | 35045 ft | 503 kts | 41° |
| 2026-04-30 13:46 | 24.12317 | 120.71478 | 35046 ft | 503 kts | 41° |
| 2026-04-30 13:47 | 24.17357 | 120.76813 | 35046 ft | 504 kts | 41° |
| 2026-04-30 13:47 | 24.22352 | 120.82107 | 35048 ft | 504 kts | 41° |
| 2026-04-30 13:48 | 24.27389 | 120.87454 | 35054 ft | 504 kts | 41° |
| 2026-04-30 13:48 | 24.31580 | 120.91907 | 35063 ft | 505 kts | 41° |
| 2026-04-30 13:49 | 24.36623 | 120.97276 | 35071 ft | 506 kts | 41° |
| 2026-04-30 13:49 | 24.42372 | 121.03659 | 35063 ft | 506 kts | 48° |
| 2026-04-30 13:50 | 24.46040 | 121.08728 | 35060 ft | 506 kts | 49° |
| 2026-04-30 13:50 | 24.52584 | 121.17739 | 35066 ft | 505 kts | 49° |
| 2026-04-30 13:51 | 24.56969 | 121.23787 | 35076 ft | 506 kts | 49° |
| 2026-04-30 13:51 | 24.62059 | 121.30823 | 35081 ft | 506 kts | 49° |
| 2026-04-30 13:52 | 24.65720 | 121.35892 | 35067 ft | 505 kts | 49° |
| 2026-04-30 13:52 | 24.70092 | 121.41950 | 35085 ft | 505 kts | 49° |
| 2026-04-30 13:53 | 24.74430 | 121.47969 | 35095 ft | 506 kts | 49° |
| 2026-04-30 13:53 | 24.78798 | 121.54037 | 35098 ft | 506 kts | 49° |
| 2026-04-30 13:54 | 24.83143 | 121.60086 | 35107 ft | 505 kts | 49° |
| 2026-04-30 13:54 | 24.87503 | 121.66161 | 35099 ft | 506 kts | 49° |
| 2026-04-30 13:55 | 24.91912 | 121.72195 | 35100 ft | 505 kts | 46° |
| 2026-04-30 13:55 | 24.96518 | 121.77978 | 35096 ft | 505 kts | 46° |
| 2026-04-30 13:56 | 25.01155 | 121.83814 | 35097 ft | 506 kts | 46° |
| 2026-04-30 13:56 | 25.05750 | 121.89662 | 35090 ft | 505 kts | 46° |
| 2026-04-30 13:57 | 25.10337 | 121.95553 | 35085 ft | 507 kts | 50° |
| 2026-04-30 13:57 | 25.12256 | 121.98823 | 35089 ft | 510 kts | 62° |
| 2026-04-30 13:57 | 25.13581 | 122.02426 | 35081 ft | 512 kts | 74° |
| 2026-04-30 13:58 | 25.14270 | 122.06234 | 35077 ft | 511 kts | 86° |
| 2026-04-30 13:58 | 25.13646 | 122.13996 | 35084 ft | 502 kts | 110° |
| 2026-04-30 13:59 | 25.11738 | 122.21364 | 35093 ft | 506 kts | 106° |
| 2026-04-30 13:59 | 25.10615 | 122.29057 | 35094 ft | 510 kts | 99° |
| 2026-04-30 14:00 | 25.09844 | 122.36850 | 35102 ft | 511 kts | 99° |
| 2026-04-30 14:00 | 25.08725 | 122.48517 | 35084 ft | 508 kts | 99° |
| 2026-04-30 14:01 | 25.07975 | 122.56261 | 35092 ft | 508 kts | 99° |
| 2026-04-30 14:01 | 25.07226 | 122.63960 | 35089 ft | 508 kts | 99° |
| 2026-04-30 14:02 | 25.06470 | 122.71700 | 35078 ft | 508 kts | 99° |
| 2026-04-30 14:02 | 25.05709 | 122.79449 | 35080 ft | 507 kts | 99° |
| 2026-04-30 14:03 | 25.04948 | 122.87125 | 35070 ft | 505 kts | 99° |
| 2026-04-30 14:03 | 25.04183 | 122.94817 | 35062 ft | 504 kts | 99° |
| 2026-04-30 14:04 | 25.03421 | 123.02431 | 35076 ft | 507 kts | 99° |
| 2026-04-30 14:04 | 25.02650 | 123.10144 | 35075 ft | 507 kts | 99° |
| 2026-04-30 14:05 | 25.01900 | 123.17603 | 35070 ft | 507 kts | 99° |
| 2026-04-30 14:05 | 25.01127 | 123.25237 | 35074 ft | 507 kts | 99° |
| 2026-04-30 14:06 | 24.99949 | 123.36788 | 35074 ft | 506 kts | 99° |
| 2026-04-30 14:07 | 24.98818 | 123.47781 | 35069 ft | 513 kts | 100° |
| 2026-04-30 14:08 | 24.97583 | 123.59679 | 35059 ft | 523 kts | 100° |
| 2026-04-30 14:08 | 24.96337 | 123.71630 | 35065 ft | 523 kts | 100° |
| 2026-04-30 14:09 | 24.95505 | 123.79530 | 35065 ft | 523 kts | 100° |
| 2026-04-30 14:10 | 24.94286 | 123.91056 | 35060 ft | 523 kts | 100° |
| 2026-04-30 14:10 | 24.93439 | 123.99014 | 35055 ft | 523 kts | 100° |
| 2026-04-30 14:11 | 24.92545 | 124.06958 | 35055 ft | 522 kts | 101° |
| 2026-04-30 14:11 | 24.91632 | 124.14681 | 35054 ft | 500 kts | 101° |
| 2026-04-30 14:12 | 24.90731 | 124.22289 | 35060 ft | 505 kts | 101° |
| 2026-04-30 14:12 | 24.89824 | 124.29963 | 34822 ft | 504 kts | 101° |
| 2026-04-30 14:12 | 24.89371 | 124.33789 | 34577 ft | 503 kts | 101° |
| 2026-04-30 14:13 | 24.88919 | 124.37606 | 34329 ft | 503 kts | 101° |
| 2026-04-30 14:13 | 24.88467 | 124.41403 | 34076 ft | 504 kts | 101° |
| 2026-04-30 14:13 | 24.88011 | 124.45231 | 33831 ft | 504 kts | 101° |
| 2026-04-30 14:13 | 24.87553 | 124.49066 | 33582 ft | 504 kts | 101° |
| 2026-04-30 14:14 | 24.87096 | 124.52887 | 33333 ft | 505 kts | 101° |
| 2026-04-30 14:14 | 24.86635 | 124.56730 | 33084 ft | 506 kts | 101° |
| 2026-04-30 14:14 | 24.86174 | 124.60568 | 32839 ft | 506 kts | 101° |
| 2026-04-30 14:14 | 24.85767 | 124.63951 | 32615 ft | 506 kts | 101° |
| 2026-04-30 14:15 | 24.85334 | 124.67539 | 32364 ft | 506 kts | 100° |
| 2026-04-30 14:15 | 24.84868 | 124.71390 | 31764 ft | 508 kts | 100° |
| 2026-04-30 14:15 | 24.84405 | 124.75205 | 30923 ft | 511 kts | 100° |
| 2026-04-30 14:15 | 24.83932 | 124.79090 | 30114 ft | 511 kts | 100° |
| 2026-04-30 14:16 | 24.83474 | 124.82867 | 29824 ft | 498 kts | 99° |
| 2026-04-30 14:16 | 24.83022 | 124.86586 | 29580 ft | 491 kts | 100° |
| 2026-04-30 14:16 | 24.82566 | 124.90307 | 29182 ft | 488 kts | 100° |
| 2026-04-30 14:16 | 24.82118 | 124.93973 | 28684 ft | 479 kts | 100° |
| 2026-04-30 14:17 | 24.81705 | 124.97337 | 28281 ft | 473 kts | 100° |
| 2026-04-30 14:17 | 24.81321 | 125.00454 | 28124 ft | 473 kts | 100° |
| 2026-04-30 14:17 | 24.81177 | 125.01621 | 28047 ft | 474 kts | 100° |
| 2026-04-30 14:17 | 24.81046 | 125.02685 | 27973 ft | 475 kts | 100° |
| 2026-04-30 14:18 | 24.80670 | 125.05728 | 27757 ft | 474 kts | 100° |
| 2026-04-30 14:18 | 24.80538 | 125.06802 | 27682 ft | 473 kts | 100° |
| 2026-04-30 14:18 | 24.79813 | 125.12668 | 27270 ft | 468 kts | 100° |
| 2026-04-30 14:19 | 24.79047 | 125.18837 | 26844 ft | 466 kts | 100° |
| 2026-04-30 14:19 | 24.78604 | 125.22391 | 26602 ft | 465 kts | 100° |
| 2026-04-30 14:19 | 24.78238 | 125.25672 | 26366 ft | 464 kts | 95° |
| 2026-04-30 14:20 | 24.78395 | 125.29179 | 26129 ft | 465 kts | 81° |
| 2026-04-30 14:20 | 24.79269 | 125.32592 | 25887 ft | 462 kts | 66° |
| 2026-04-30 14:20 | 24.82575 | 125.38590 | 25408 ft | 457 kts | 53° |
| 2026-04-30 14:21 | 24.84395 | 125.41455 | 25169 ft | 456 kts | 53° |
| 2026-04-30 14:21 | 24.86165 | 125.44343 | 24930 ft | 454 kts | 55° |
| 2026-04-30 14:21 | 24.89425 | 125.49942 | 24473 ft | 452 kts | 56° |
| 2026-04-30 14:22 | 24.91085 | 125.52867 | 24243 ft | 449 kts | 56° |
| 2026-04-30 14:22 | 24.94377 | 125.58699 | 23764 ft | 447 kts | 56° |
| 2026-04-30 14:22 | 24.96011 | 125.61597 | 23530 ft | 446 kts | 56° |
| 2026-04-30 14:23 | 24.99279 | 125.67393 | 23063 ft | 443 kts | 56° |
| 2026-04-30 14:23 | 25.02496 | 125.73103 | 22695 ft | 444 kts | 56° |
| 2026-04-30 14:24 | 25.05735 | 125.78861 | 22410 ft | 438 kts | 56° |
| 2026-04-30 14:24 | 25.07338 | 125.81713 | 22269 ft | 437 kts | 56° |
| 2026-04-30 14:25 | 25.10541 | 125.87415 | 21990 ft | 438 kts | 56° |
| 2026-04-30 14:25 | 25.13735 | 125.93110 | 21712 ft | 435 kts | 56° |
| 2026-04-30 14:26 | 25.16915 | 125.98785 | 21421 ft | 433 kts | 56° |
| 2026-04-30 14:26 | 25.18476 | 126.01573 | 21296 ft | 433 kts | 56° |
| 2026-04-30 14:26 | 25.21638 | 126.07227 | 21015 ft | 433 kts | 56° |